createdAt,value
2019-03-26T00:00:59.643Z,62.29
2019-03-26T00:01:59.634Z,62.18
2019-03-26T00:02:59.626Z,62.08
2019-03-26T00:04:05.777Z,61.19
2019-03-26T00:05:00.599Z,60.85
2019-03-26T00:05:59.596Z,61.77
2019-03-26T00:06:59.581Z,61.19
2019-03-26T00:07:59.569Z,60.44
2019-03-26T00:08:59.554Z,60.37
2019-03-26T00:09:59.543Z,59.94
2019-03-26T00:10:59.544Z,60.47
2019-03-26T00:11:59.523Z,59.14
2019-03-26T00:12:59.510Z,59.04
2019-03-26T00:13:59.502Z,58.63
2019-03-26T00:14:59.489Z,58.73
2019-03-26T00:15:59.478Z,58.45
2019-03-26T00:16:59.466Z,58.45
2019-03-26T00:17:59.471Z,57.84
2019-03-26T00:18:59.440Z,57.43
2019-03-26T00:19:59.434Z,57.46
2019-03-26T00:20:59.423Z,57.05
2019-03-26T00:21:59.412Z,57.46
2019-03-26T00:22:59.404Z,57.38
2019-03-26T00:23:59.383Z,56.97
2019-03-26T00:24:59.372Z,56.97
2019-03-26T00:25:59.367Z,57.28
2019-03-26T00:26:59.356Z,56.90
2019-03-26T00:27:59.343Z,56.59
2019-03-26T00:28:59.338Z,56.49
2019-03-26T00:29:59.320Z,56.28
2019-03-26T00:30:59.309Z,56.90
2019-03-26T00:31:59.298Z,56.28
2019-03-26T00:32:59.292Z,56.59
2019-03-26T00:33:59.281Z,56.41
2019-03-26T00:34:59.273Z,56.59
2019-03-26T00:35:59.258Z,57.10
2019-03-26T00:36:59.247Z,57.23
2019-03-26T00:37:59.229Z,57.23
2019-03-26T00:38:59.222Z,57.54
2019-03-26T00:39:59.217Z,57.84
2019-03-26T00:40:59.199Z,57.98
2019-03-26T00:41:59.189Z,57.87
2019-03-26T00:42:59.179Z,58.26
2019-03-26T00:43:59.168Z,58.49
2019-03-26T00:44:59.158Z,58.90
2019-03-26T00:45:59.145Z,59.11
2019-03-26T00:46:59.133Z,58.83
2019-03-26T00:47:59.123Z,58.72
2019-03-26T00:48:59.110Z,59.34
2019-03-26T00:49:59.099Z,59.23
2019-03-26T00:50:59.086Z,58.72
2019-03-26T00:51:59.077Z,58.92
2019-03-26T00:52:59.065Z,58.92
2019-03-26T00:53:59.055Z,59.26
2019-03-26T00:54:59.048Z,59.36
2019-03-26T00:55:59.032Z,60.21
2019-03-26T00:56:59.023Z,60.63
2019-03-26T00:58:01.471Z,60.31
2019-03-26T00:58:59.003Z,60.52
2019-03-26T00:59:58.997Z,60.75
2019-03-26T01:00:58.975Z,60.63
2019-03-26T01:01:58.967Z,60.63
2019-03-26T01:02:58.951Z,61.17
2019-03-26T01:03:58.945Z,60.83
2019-03-26T01:04:58.935Z,60.75
2019-03-26T01:05:58.923Z,60.11
2019-03-26T01:06:58.908Z,60.11
2019-03-26T01:07:58.900Z,59.91
2019-03-26T01:08:58.887Z,59.91
2019-03-26T01:09:58.874Z,60.01
2019-03-26T01:10:58.867Z,60.01
2019-03-26T01:11:58.862Z,60.63
2019-03-26T01:12:58.849Z,60.63
2019-03-26T01:13:58.830Z,59.70
2019-03-26T01:14:58.818Z,60.65
2019-03-26T01:15:58.815Z,59.93
2019-03-26T01:16:58.799Z,59.93
2019-03-26T01:17:58.790Z,59.50
2019-03-26T01:18:58.776Z,60.21
2019-03-26T01:19:58.762Z,59.70
2019-03-26T01:20:58.754Z,59.80
2019-03-26T01:21:58.739Z,60.24
2019-03-26T01:22:58.733Z,60.35
2019-03-26T01:23:58.723Z,60.65
2019-03-26T01:24:58.708Z,60.96
2019-03-26T01:25:58.698Z,60.45
2019-03-26T01:26:58.688Z,61.17
2019-03-26T01:27:58.678Z,60.99
2019-03-26T01:28:58.662Z,61.17
2019-03-26T01:29:58.653Z,61.47
2019-03-26T01:30:58.640Z,61.61
2019-03-26T01:31:58.629Z,61.81
2019-03-26T01:32:58.619Z,61.51
2019-03-26T01:33:58.610Z,62.02
2019-03-26T01:34:58.595Z,61.91
2019-03-26T01:35:58.589Z,62.02
2019-03-26T01:36:58.576Z,61.94
2019-03-26T01:37:58.564Z,62.18
2019-03-26T01:38:58.552Z,62.79
2019-03-26T01:39:58.544Z,63.31
2019-03-26T01:40:58.531Z,62.59
2019-03-26T01:41:58.515Z,62.79
2019-03-26T01:42:58.508Z,63.72
2019-03-26T01:43:58.497Z,62.90
2019-03-26T01:44:58.484Z,63.45
2019-03-26T01:45:58.477Z,63.54
2019-03-26T01:46:58.464Z,63.34
2019-03-26T01:47:58.458Z,63.34
2019-03-26T01:48:58.442Z,63.13
2019-03-26T01:49:58.433Z,63.03
2019-03-26T01:50:58.423Z,62.93
2019-03-26T01:51:58.410Z,62.21
2019-03-26T01:52:58.395Z,62.41
2019-03-26T01:53:58.386Z,62.49
2019-03-26T01:54:58.376Z,62.59
2019-03-26T01:55:58.363Z,62.52
2019-03-26T01:56:58.353Z,62.52
2019-03-26T01:57:58.343Z,62.18
2019-03-26T01:58:58.331Z,61.87
2019-03-26T01:59:58.323Z,62.38
2019-03-26T02:00:58.315Z,62.62
2019-03-26T02:01:58.300Z,62.59
2019-03-26T02:02:58.288Z,62.82
2019-03-26T02:03:58.276Z,62.72
2019-03-26T02:05:00.144Z,62.62
2019-03-26T02:05:58.258Z,62.41
2019-03-26T02:06:58.248Z,62.41
2019-03-26T02:07:58.231Z,62.62
2019-03-26T02:08:58.221Z,61.90
2019-03-26T02:09:58.212Z,61.56
2019-03-26T02:10:58.202Z,61.07
2019-03-26T02:11:58.190Z,61.49
2019-03-26T02:12:58.178Z,62.00
2019-03-26T02:13:58.166Z,60.66
2019-03-26T02:14:58.153Z,60.97
2019-03-26T02:15:58.146Z,60.56
2019-03-26T02:16:58.146Z,61.28
2019-03-26T02:17:58.124Z,60.46
2019-03-26T02:18:58.111Z,60.89
2019-03-26T02:19:58.145Z,60.89
2019-03-26T02:20:58.090Z,61.21
2019-03-26T02:21:58.081Z,61.21
2019-03-26T02:22:58.066Z,60.79
2019-03-26T02:23:58.060Z,60.59
2019-03-26T02:24:58.046Z,59.94
2019-03-26T02:25:58.034Z,60.56
2019-03-26T02:26:58.032Z,60.38
2019-03-26T02:27:58.014Z,60.05
2019-03-26T02:28:58.007Z,60.35
2019-03-26T02:29:57.994Z,59.42
2019-03-26T02:30:57.987Z,59.84
2019-03-26T02:31:57.974Z,60.77
2019-03-26T02:32:57.961Z,60.05
2019-03-26T02:33:57.959Z,60.05
2019-03-26T02:34:57.943Z,59.63
2019-03-26T02:35:57.930Z,59.42
2019-03-26T02:36:57.926Z,59.84
2019-03-26T02:37:57.910Z,59.53
2019-03-26T02:38:57.895Z,59.94
2019-03-26T02:39:57.883Z,60.25
2019-03-26T02:40:57.888Z,60.15
2019-03-26T02:41:57.862Z,59.22
2019-03-26T02:42:57.857Z,59.63
2019-03-26T02:43:57.841Z,59.94
2019-03-26T02:44:57.835Z,59.84
2019-03-26T02:45:57.825Z,59.53
2019-03-26T02:46:57.807Z,59.63
2019-03-26T02:47:57.796Z,59.53
2019-03-26T02:48:57.785Z,60.15
2019-03-26T02:49:57.773Z,59.84
2019-03-26T02:50:57.768Z,59.86
2019-03-26T02:51:57.749Z,59.97
2019-03-26T02:52:57.744Z,60.79
2019-03-26T02:53:57.731Z,60.28
2019-03-26T02:54:57.725Z,60.79
2019-03-26T02:55:57.708Z,60.79
2019-03-26T02:56:57.696Z,60.59
2019-03-26T02:57:57.690Z,60.49
2019-03-26T02:58:57.678Z,60.49
2019-03-26T02:59:57.662Z,60.59
2019-03-26T03:00:57.667Z,60.17
2019-03-26T03:01:57.647Z,59.97
2019-03-26T03:02:57.634Z,60.17
2019-03-26T03:03:57.617Z,60.69
2019-03-26T03:04:57.613Z,60.51
2019-03-26T03:05:57.607Z,60.61
2019-03-26T03:06:57.590Z,60.79
2019-03-26T03:07:57.581Z,60.69
2019-03-26T03:08:57.565Z,60.82
2019-03-26T03:09:57.553Z,61.33
2019-03-26T03:10:57.544Z,60.41
2019-03-26T03:11:57.539Z,61.33
2019-03-26T03:12:57.550Z,61.33
2019-03-26T03:13:57.515Z,61.24
2019-03-26T03:14:57.499Z,61.54
2019-03-26T03:15:57.489Z,60.82
2019-03-26T03:16:57.477Z,61.44
2019-03-26T03:17:57.474Z,61.13
2019-03-26T03:18:57.454Z,60.93
2019-03-26T03:19:57.444Z,61.44
2019-03-26T03:20:57.441Z,61.13
2019-03-26T03:21:57.426Z,61.03
2019-03-26T03:22:57.413Z,60.93
2019-03-26T03:23:57.400Z,61.44
2019-03-26T03:24:57.389Z,61.78
2019-03-26T03:25:57.383Z,61.68
2019-03-26T03:26:57.374Z,62.19
2019-03-26T03:27:57.364Z,62.19
2019-03-26T03:28:57.356Z,62.81
2019-03-26T03:29:57.335Z,62.08
2019-03-26T03:30:57.322Z,62.71
2019-03-26T03:31:57.313Z,62.60
2019-03-26T03:32:57.300Z,62.71
2019-03-26T03:33:57.293Z,61.98
2019-03-26T03:34:57.278Z,61.68
2019-03-26T03:35:57.269Z,61.75
2019-03-26T03:36:57.257Z,61.26
2019-03-26T03:37:57.245Z,61.05
2019-03-26T03:38:57.233Z,61.36
2019-03-26T03:39:57.235Z,61.16
2019-03-26T03:40:57.218Z,61.98
2019-03-26T03:41:57.211Z,61.26
2019-03-26T03:42:57.195Z,61.78
2019-03-26T03:43:57.177Z,61.05
2019-03-26T03:44:57.168Z,61.47
2019-03-26T03:45:57.158Z,62.08
2019-03-26T03:46:57.147Z,61.05
2019-03-26T03:47:57.137Z,61.47
2019-03-26T03:48:57.129Z,61.05
2019-03-26T03:49:57.118Z,61.36
2019-03-26T03:50:57.102Z,61.57
2019-03-26T03:51:57.090Z,61.26
2019-03-26T03:52:57.078Z,61.05
2019-03-26T03:53:57.081Z,60.95
2019-03-26T03:54:57.059Z,60.95
2019-03-26T03:55:57.048Z,60.95
2019-03-26T03:56:57.037Z,60.85
2019-03-26T03:57:57.025Z,61.26
2019-03-26T03:58:57.014Z,60.64
2019-03-26T03:59:57.003Z,60.85
2019-03-26T04:00:56.992Z,61.05
2019-03-26T04:01:56.982Z,61.29
2019-03-26T04:02:56.972Z,61.08
2019-03-26T04:03:56.958Z,61.80
2019-03-26T04:04:56.944Z,61.47
2019-03-26T04:06:09.057Z,61.19
2019-03-26T04:06:57.921Z,61.26
2019-03-26T04:07:56.914Z,61.36
2019-03-26T04:08:56.912Z,61.26
2019-03-26T04:09:56.889Z,60.95
2019-03-26T04:10:56.878Z,60.54
2019-03-26T04:11:56.870Z,61.26
2019-03-26T04:12:56.862Z,60.85
2019-03-26T04:13:56.847Z,61.36
2019-03-26T04:14:56.841Z,61.47
2019-03-26T04:15:56.830Z,61.47
2019-03-26T04:16:56.812Z,61.05
2019-03-26T04:17:56.802Z,61.05
2019-03-26T04:18:56.797Z,61.05
2019-03-26T04:19:56.779Z,62.08
2019-03-26T04:20:56.783Z,62.19
2019-03-26T04:21:56.758Z,62.12
2019-03-26T04:22:56.749Z,62.08
2019-03-26T04:23:56.732Z,61.98
2019-03-26T04:24:56.727Z,61.47
2019-03-26T04:25:56.715Z,62.08
2019-03-26T04:26:56.701Z,61.88
2019-03-26T04:27:56.691Z,62.71
2019-03-26T04:28:56.683Z,62.19
2019-03-26T04:29:56.667Z,62.81
2019-03-26T04:30:56.660Z,62.60
2019-03-26T04:31:56.647Z,62.43
2019-03-26T04:32:56.672Z,62.50
2019-03-26T04:33:56.625Z,63.04
2019-03-26T04:34:56.616Z,63.22
2019-03-26T04:35:56.605Z,63.22
2019-03-26T04:36:56.593Z,63.22
2019-03-26T04:37:56.581Z,62.81
2019-03-26T04:38:56.572Z,63.01
2019-03-26T04:39:56.562Z,63.25
2019-03-26T04:40:56.548Z,63.25
2019-03-26T04:41:56.537Z,63.74
2019-03-26T04:42:56.528Z,63.22
2019-03-26T04:43:56.515Z,64.59
2019-03-26T04:44:56.510Z,64.28
2019-03-26T04:45:56.492Z,64.18
2019-03-26T04:46:56.495Z,64.28
2019-03-26T04:47:56.470Z,64.49
2019-03-26T04:48:56.456Z,64.49
2019-03-26T04:49:56.441Z,64.49
2019-03-26T04:50:56.434Z,64.59
2019-03-26T04:51:56.423Z,64.80
2019-03-26T04:52:56.415Z,64.80
2019-03-26T04:53:56.402Z,65.00
2019-03-26T04:54:56.387Z,65.83
2019-03-26T04:55:56.382Z,65.31
2019-03-26T04:56:56.366Z,65.11
2019-03-26T04:57:56.358Z,65.62
2019-03-26T04:58:56.348Z,65.94
2019-03-26T04:59:56.333Z,66.24
2019-03-26T05:00:56.323Z,66.58
2019-03-26T05:01:56.316Z,67.07
2019-03-26T05:02:56.301Z,67.00
2019-03-26T05:03:56.293Z,66.89
2019-03-26T05:04:56.279Z,66.55
2019-03-26T05:05:56.265Z,66.38
2019-03-26T05:06:56.258Z,65.52
2019-03-26T05:07:56.245Z,65.31
2019-03-26T05:08:56.235Z,65.83
2019-03-26T05:09:56.222Z,64.80
2019-03-26T05:10:56.212Z,64.39
2019-03-26T05:11:56.219Z,63.43
2019-03-26T05:12:56.207Z,62.92
2019-03-26T05:13:56.196Z,62.40
2019-03-26T05:14:56.184Z,62.29
2019-03-26T05:15:56.175Z,61.75
2019-03-26T05:16:56.164Z,62.26
2019-03-26T05:17:56.832Z,62.71
2019-03-26T05:18:56.143Z,62.19
2019-03-26T05:19:56.110Z,61.65
2019-03-26T05:20:56.109Z,60.82
2019-03-26T05:21:56.093Z,61.00
2019-03-26T05:22:56.081Z,61.24
2019-03-26T05:23:56.066Z,60.61
2019-03-26T05:24:56.061Z,61.00
2019-03-26T05:25:56.041Z,60.82
2019-03-26T05:26:56.031Z,60.69
2019-03-26T05:27:56.025Z,61.31
2019-03-26T05:28:56.007Z,61.21
2019-03-26T05:29:55.998Z,60.79
2019-03-26T05:30:55.984Z,60.07
2019-03-26T05:31:55.992Z,60.07
2019-03-26T05:32:55.968Z,60.28
2019-03-26T05:33:55.954Z,60.07
2019-03-26T05:34:55.945Z,60.79
2019-03-26T05:35:55.931Z,60.28
2019-03-26T05:36:55.920Z,60.89
2019-03-26T05:37:55.914Z,60.69
2019-03-26T05:38:55.899Z,61.31
2019-03-26T05:39:55.889Z,61.10
2019-03-26T05:40:55.875Z,60.49
2019-03-26T05:41:55.867Z,60.49
2019-03-26T05:42:55.854Z,60.38
2019-03-26T05:43:55.844Z,60.28
2019-03-26T05:44:55.834Z,59.77
2019-03-26T05:45:55.819Z,59.86
2019-03-26T05:46:55.817Z,59.42
2019-03-26T05:47:55.799Z,59.53
2019-03-26T05:48:55.785Z,59.74
2019-03-26T05:49:55.774Z,59.53
2019-03-26T05:50:55.762Z,59.53
2019-03-26T05:51:55.752Z,59.42
2019-03-26T05:52:55.742Z,59.42
2019-03-26T05:53:55.729Z,59.22
2019-03-26T05:54:55.720Z,58.91
2019-03-26T05:55:55.713Z,59.12
2019-03-26T05:56:55.699Z,59.12
2019-03-26T05:57:55.690Z,58.47
2019-03-26T05:58:55.675Z,58.40
2019-03-26T05:59:55.660Z,58.68
2019-03-26T06:00:55.653Z,58.81
2019-03-26T06:01:55.663Z,58.37
2019-03-26T06:02:55.633Z,58.37
2019-03-26T06:03:55.619Z,58.37
2019-03-26T06:04:55.606Z,58.26
2019-03-26T06:05:55.597Z,58.06
2019-03-26T06:07:04.687Z,57.96
2019-03-26T06:07:56.583Z,57.96
2019-03-26T06:08:55.568Z,57.65
2019-03-26T06:09:55.555Z,57.73
2019-03-26T06:10:55.546Z,57.52
2019-03-26T06:11:55.539Z,56.70
2019-03-26T06:12:55.524Z,57.21
2019-03-26T06:13:55.514Z,57.42
2019-03-26T06:14:55.503Z,57.18
2019-03-26T06:15:55.492Z,57.18
2019-03-26T06:16:55.481Z,56.77
2019-03-26T06:17:57.580Z,56.67
2019-03-26T06:18:55.457Z,56.85
2019-03-26T06:19:55.442Z,55.74
2019-03-26T06:20:55.432Z,55.74
2019-03-26T06:21:55.419Z,55.54
2019-03-26T06:22:55.414Z,56.26
2019-03-26T06:23:55.398Z,55.64
2019-03-26T06:24:55.391Z,55.64
2019-03-26T06:25:55.404Z,55.54
2019-03-26T06:26:55.372Z,56.05
2019-03-26T06:27:55.359Z,55.54
2019-03-26T06:28:55.351Z,55.43
2019-03-26T06:29:55.339Z,55.51
2019-03-26T06:30:55.329Z,55.62
2019-03-26T06:31:55.317Z,54.69
2019-03-26T06:32:55.306Z,55.54
2019-03-26T06:33:55.292Z,54.72
2019-03-26T06:34:55.277Z,54.28
2019-03-26T06:35:55.268Z,54.07
2019-03-26T06:36:55.255Z,54.07
2019-03-26T06:37:55.247Z,54.17
2019-03-26T06:38:55.242Z,54.15
2019-03-26T06:39:58.262Z,53.94
2019-03-26T06:40:55.214Z,54.38
2019-03-26T06:41:55.206Z,53.74
2019-03-26T06:42:55.189Z,54.05
2019-03-26T06:43:55.194Z,53.85
2019-03-26T06:44:55.168Z,53.53
2019-03-26T06:45:55.156Z,53.43
2019-03-26T06:46:55.151Z,52.61
2019-03-26T06:47:55.141Z,53.02
2019-03-26T06:48:55.127Z,52.71
2019-03-26T06:49:55.120Z,51.99
2019-03-26T06:50:55.106Z,52.81
2019-03-26T06:51:55.099Z,51.17
2019-03-26T06:52:55.076Z,51.68
2019-03-26T06:53:55.072Z,51.68
2019-03-26T06:54:55.064Z,52.81
2019-03-26T06:55:55.047Z,52.69
2019-03-26T06:56:55.054Z,51.99
2019-03-26T06:57:55.024Z,51.66
2019-03-26T06:58:55.013Z,51.76
2019-03-26T06:59:54.998Z,52.07
2019-03-26T07:00:54.998Z,51.45
2019-03-26T07:01:54.980Z,51.76
2019-03-26T07:02:54.967Z,51.97
2019-03-26T07:03:54.960Z,51.56
2019-03-26T07:04:54.944Z,51.87
2019-03-26T07:05:54.933Z,51.25
2019-03-26T07:06:57.702Z,51.25
2019-03-26T07:07:54.911Z,50.51
2019-03-26T07:08:54.897Z,50.94
2019-03-26T07:09:54.889Z,50.32
2019-03-26T07:10:54.879Z,50.30
2019-03-26T07:11:54.867Z,50.71
2019-03-26T07:12:54.859Z,50.30
2019-03-26T07:13:54.846Z,50.30
2019-03-26T07:14:54.837Z,50.20
2019-03-26T07:15:54.825Z,50.30
2019-03-26T07:16:54.807Z,50.40
2019-03-26T07:17:54.803Z,51.12
2019-03-26T07:18:54.785Z,50.74
2019-03-26T07:19:54.780Z,51.33
2019-03-26T07:20:54.800Z,51.74
2019-03-26T07:21:54.836Z,51.97
2019-03-26T07:22:54.753Z,51.84
2019-03-26T07:23:54.753Z,51.95
2019-03-26T07:24:54.724Z,51.74
2019-03-26T07:25:54.714Z,51.84
2019-03-26T07:26:54.702Z,51.97
2019-03-26T07:27:54.687Z,51.74
2019-03-26T07:28:56.706Z,51.84
2019-03-26T07:29:54.663Z,52.04
2019-03-26T07:30:54.664Z,51.74
2019-03-26T07:31:54.644Z,51.64
2019-03-26T07:32:54.645Z,52.87
2019-03-26T07:33:54.624Z,51.33
2019-03-26T07:34:54.614Z,51.43
2019-03-26T07:35:54.598Z,51.43
2019-03-26T07:36:54.595Z,51.51
2019-03-26T07:37:54.580Z,51.92
2019-03-26T07:38:54.616Z,51.31
2019-03-26T07:39:54.566Z,51.82
2019-03-26T07:40:54.546Z,51.10
2019-03-26T07:41:54.533Z,51.20
2019-03-26T07:42:54.523Z,51.82
2019-03-26T07:43:54.511Z,51.74
2019-03-26T07:44:54.500Z,51.61
2019-03-26T07:45:54.487Z,51.82
2019-03-26T07:46:54.478Z,52.41
2019-03-26T07:47:54.466Z,51.69
2019-03-26T07:48:54.453Z,51.69
2019-03-26T07:49:54.441Z,51.61
2019-03-26T07:50:54.435Z,51.69
2019-03-26T07:51:54.425Z,51.72
2019-03-26T07:52:54.410Z,51.90
2019-03-26T07:53:55.154Z,51.61
2019-03-26T07:54:54.396Z,51.79
2019-03-26T07:55:54.384Z,51.90
2019-03-26T07:56:54.364Z,51.79
2019-03-26T07:57:54.355Z,51.59
2019-03-26T07:58:54.341Z,51.79
2019-03-26T07:59:54.334Z,51.15
2019-03-26T08:00:54.323Z,51.03
2019-03-26T08:01:54.307Z,50.70
2019-03-26T08:02:54.300Z,50.56
2019-03-26T08:03:54.319Z,51.15
2019-03-26T08:04:54.331Z,50.74
2019-03-26T08:05:54.361Z,50.56
2019-03-26T08:06:54.253Z,51.15
2019-03-26T08:07:58.547Z,50.54
2019-03-26T08:08:54.258Z,50.74
2019-03-26T08:09:54.228Z,50.42
2019-03-26T08:10:54.270Z,50.23
2019-03-26T08:11:54.211Z,50.95
2019-03-26T08:12:54.230Z,50.52
2019-03-26T08:13:54.231Z,50.95
2019-03-26T08:14:54.201Z,50.21
2019-03-26T08:15:54.179Z,49.57
2019-03-26T08:16:54.151Z,50.09
2019-03-26T08:17:54.200Z,49.80
2019-03-26T08:18:54.196Z,50.21
2019-03-26T08:19:54.120Z,50.01
2019-03-26T08:20:57.150Z,50.18
2019-03-26T08:21:54.109Z,50.39
2019-03-26T08:22:54.089Z,49.37
2019-03-26T08:23:54.069Z,49.26
2019-03-26T08:24:54.058Z,49.57
2019-03-26T08:25:54.071Z,49.57
2019-03-26T08:26:54.074Z,49.37
2019-03-26T08:27:54.051Z,48.60
2019-03-26T08:28:54.042Z,47.97
2019-03-26T08:29:54.019Z,47.94
2019-03-26T08:30:53.991Z,47.99
2019-03-26T08:31:54.426Z,47.45
2019-03-26T08:32:53.991Z,47.15
2019-03-26T08:33:53.967Z,47.25
2019-03-26T08:34:53.980Z,47.13
2019-03-26T08:35:53.936Z,46.62
2019-03-26T08:36:53.924Z,47.11
2019-03-26T08:37:53.922Z,46.59
2019-03-26T08:38:53.928Z,45.67
2019-03-26T08:39:53.925Z,45.26
2019-03-26T08:40:53.951Z,45.04
2019-03-26T08:41:53.889Z,45.47
2019-03-26T08:42:53.875Z,44.32
2019-03-26T08:43:53.846Z,44.32
2019-03-26T08:44:53.926Z,43.16
2019-03-26T08:45:53.827Z,43.37
2019-03-26T08:46:53.841Z,41.92
2019-03-26T08:47:53.847Z,42.24
2019-03-26T08:48:53.793Z,43.77
2019-03-26T08:49:53.786Z,43.14
2019-03-26T08:50:53.777Z,42.18
2019-03-26T08:51:53.756Z,41.78
2019-03-26T08:52:53.749Z,42.02
2019-03-26T08:53:53.737Z,41.98
2019-03-26T08:54:53.733Z,41.92
2019-03-26T08:55:53.721Z,42.04
2019-03-26T08:56:53.703Z,43.16
2019-03-26T08:57:53.686Z,42.71
2019-03-26T08:58:53.747Z,41.63
2019-03-26T08:59:53.673Z,43.06
2019-03-26T09:00:53.666Z,42.12
2019-03-26T09:01:53.645Z,43.18
2019-03-26T09:02:53.645Z,43.67
2019-03-26T09:03:53.664Z,42.43
2019-03-26T09:04:53.638Z,43.16
2019-03-26T09:05:53.640Z,42.29
2019-03-26T09:06:53.587Z,42.41
2019-03-26T09:07:53.579Z,42.94
2019-03-26T09:08:53.571Z,41.71
2019-03-26T09:09:53.589Z,43.37
2019-03-26T09:10:53.549Z,43.77
2019-03-26T09:11:53.543Z,42.25
2019-03-26T09:12:53.522Z,40.99
2019-03-26T09:13:53.527Z,40.70
2019-03-26T09:14:53.499Z,41.74
2019-03-26T09:15:53.489Z,41.31
2019-03-26T09:16:53.496Z,41.29
2019-03-26T09:17:53.490Z,41.90
2019-03-26T09:18:53.473Z,39.71
2019-03-26T09:19:53.457Z,38.76
2019-03-26T09:20:53.458Z,38.52
2019-03-26T09:21:53.419Z,37.01
2019-03-26T09:22:53.470Z,37.79
2019-03-26T09:23:53.542Z,37.56
2019-03-26T09:24:53.443Z,39.28
2019-03-26T09:25:53.540Z,39.61
2019-03-26T09:26:53.398Z,38.95
2019-03-26T09:27:53.437Z,37.24
2019-03-26T09:28:53.488Z,36.56
2019-03-26T09:29:53.401Z,37.15
2019-03-26T09:30:53.371Z,36.78
2019-03-26T09:31:53.321Z,36.36
2019-03-26T09:32:53.308Z,38.07
2019-03-26T09:33:53.401Z,39.76
2019-03-26T09:34:53.459Z,40.77
2019-03-26T09:35:53.279Z,39.93
2019-03-26T09:36:53.295Z,39.18
2019-03-26T09:37:53.298Z,36.96
2019-03-26T09:38:53.245Z,36.00
2019-03-26T09:39:53.301Z,36.32
2019-03-26T09:40:53.220Z,37.35
2019-03-26T09:41:53.222Z,39.75
2019-03-26T09:42:53.216Z,39.62
2019-03-26T09:43:53.195Z,38.86
2019-03-26T09:44:56.419Z,37.08
2019-03-26T09:45:53.184Z,35.92
2019-03-26T09:46:53.158Z,37.40
2019-03-26T09:47:53.141Z,36.36
2019-03-26T09:48:53.134Z,36.07
2019-03-26T09:49:53.132Z,37.82
2019-03-26T09:50:53.121Z,39.56
2019-03-26T09:51:53.353Z,37.91
2019-03-26T09:52:53.118Z,36.24
2019-03-26T09:53:53.087Z,34.77
2019-03-26T09:54:53.069Z,34.67
2019-03-26T09:55:53.060Z,36.78
2019-03-26T09:56:53.062Z,38.01
2019-03-26T09:57:53.062Z,37.20
2019-03-26T09:58:53.058Z,36.98
2019-03-26T09:59:53.050Z,36.51
2019-03-26T10:00:53.066Z,36.56
2019-03-26T10:01:53.002Z,36.98
2019-03-26T10:02:52.986Z,37.83
2019-03-26T10:03:52.977Z,37.61
2019-03-26T10:04:52.975Z,37.95
2019-03-26T10:05:52.943Z,39.00
2019-03-26T10:06:52.950Z,39.39
2019-03-26T10:07:53.047Z,38.64
2019-03-26T10:08:53.076Z,38.52
2019-03-26T10:09:52.898Z,38.84
2019-03-26T10:10:52.888Z,38.01
2019-03-26T10:11:52.871Z,37.79
2019-03-26T10:12:52.863Z,38.06
2019-03-26T10:13:52.852Z,39.25
2019-03-26T10:14:52.843Z,39.25
2019-03-26T10:15:52.837Z,37.67
2019-03-26T10:16:52.821Z,37.23
2019-03-26T10:17:52.869Z,37.27
2019-03-26T10:18:52.808Z,39.11
2019-03-26T10:19:52.804Z,38.20
2019-03-26T10:20:52.782Z,38.93
2019-03-26T10:21:52.768Z,37.47
2019-03-26T10:22:52.756Z,38.72
2019-03-26T10:23:52.748Z,39.23
2019-03-26T10:24:52.742Z,39.11
2019-03-26T10:25:52.728Z,37.03
2019-03-26T10:26:52.714Z,37.59
2019-03-26T10:27:52.731Z,37.86
2019-03-26T10:28:52.696Z,38.26
2019-03-26T10:29:52.688Z,37.05
2019-03-26T10:30:52.673Z,37.37
2019-03-26T10:31:52.662Z,38.72
2019-03-26T10:32:52.653Z,38.42
2019-03-26T10:33:52.702Z,37.69
2019-03-26T10:34:52.642Z,38.30
2019-03-26T10:35:52.631Z,38.66
2019-03-26T10:36:52.631Z,39.06
2019-03-26T10:37:52.625Z,38.86
2019-03-26T10:39:05.106Z,39.69
2019-03-26T10:39:53.575Z,39.03
2019-03-26T10:40:52.563Z,38.57
2019-03-26T10:41:52.586Z,38.62
2019-03-26T10:42:52.540Z,39.42
2019-03-26T10:43:52.554Z,39.37
2019-03-26T10:44:52.552Z,39.62
2019-03-26T10:45:52.523Z,39.87
2019-03-26T10:46:52.526Z,40.26
2019-03-26T10:47:52.637Z,39.13
2019-03-26T10:48:52.508Z,39.23
2019-03-26T10:49:52.506Z,39.37
2019-03-26T10:50:52.457Z,36.59
2019-03-26T10:51:52.457Z,38.16
2019-03-26T10:52:52.734Z,39.25
2019-03-26T10:53:52.448Z,39.55
2019-03-26T10:54:52.419Z,40.42
2019-03-26T10:55:52.422Z,40.38
2019-03-26T10:56:52.402Z,39.17
2019-03-26T10:57:52.383Z,38.68
2019-03-26T10:58:52.377Z,40.81
2019-03-26T10:59:52.371Z,40.08
2019-03-26T11:00:52.378Z,39.73
2019-03-26T11:01:52.344Z,40.70
2019-03-26T11:02:54.106Z,39.49
2019-03-26T11:03:52.319Z,39.79
2019-03-26T11:04:52.308Z,40.34
2019-03-26T11:05:52.344Z,39.21
2019-03-26T11:06:52.297Z,38.60
2019-03-26T11:07:52.278Z,39.70
2019-03-26T11:08:52.271Z,38.16
2019-03-26T11:09:52.259Z,38.43
2019-03-26T11:10:52.244Z,37.86
2019-03-26T11:11:52.239Z,37.79
2019-03-26T11:12:52.224Z,38.46
2019-03-26T11:13:52.217Z,37.13
2019-03-26T11:14:52.208Z,36.85
2019-03-26T11:15:52.195Z,36.27
2019-03-26T11:16:52.183Z,37.25
2019-03-26T11:17:52.173Z,37.25
2019-03-26T11:18:52.160Z,36.49
2019-03-26T11:19:52.151Z,36.58
2019-03-26T11:21:02.276Z,38.34
2019-03-26T11:21:53.279Z,37.67
2019-03-26T11:22:52.120Z,36.91
2019-03-26T11:23:52.113Z,35.31
2019-03-26T11:24:52.105Z,35.82
2019-03-26T11:25:52.090Z,35.94
2019-03-26T11:26:52.081Z,35.77
2019-03-26T11:27:52.076Z,37.35
2019-03-26T11:28:52.063Z,38.05
2019-03-26T11:29:52.046Z,36.14
2019-03-26T11:30:52.042Z,34.69
2019-03-26T11:31:52.040Z,35.97
2019-03-26T11:32:52.028Z,36.04
2019-03-26T11:33:52.023Z,34.25
2019-03-26T11:34:52.010Z,35.82
2019-03-26T11:35:51.989Z,35.66
2019-03-26T11:36:52.036Z,34.03
2019-03-26T11:37:51.969Z,34.55
2019-03-26T11:38:51.954Z,35.04
2019-03-26T11:39:51.954Z,36.37
2019-03-26T11:40:51.965Z,35.83
2019-03-26T11:41:51.936Z,37.54
2019-03-26T11:42:52.028Z,36.85
2019-03-26T11:43:51.912Z,35.82
2019-03-26T11:44:51.906Z,35.53
2019-03-26T11:45:51.902Z,35.92
2019-03-26T11:46:51.901Z,36.53
2019-03-26T11:47:51.878Z,37.35
2019-03-26T11:48:51.854Z,36.17
2019-03-26T11:49:51.856Z,37.18
2019-03-26T11:50:51.858Z,35.77
2019-03-26T11:51:51.831Z,34.41
2019-03-26T11:52:51.807Z,34.66
2019-03-26T11:53:51.798Z,33.93
2019-03-26T11:54:51.788Z,34.86
2019-03-26T11:55:51.805Z,34.87
2019-03-26T11:56:51.890Z,34.82
2019-03-26T11:57:51.755Z,36.12
2019-03-26T11:58:51.788Z,36.65
2019-03-26T11:59:51.738Z,36.41
2019-03-26T12:00:51.725Z,35.35
2019-03-26T12:01:52.587Z,34.42
2019-03-26T12:02:51.705Z,34.17
2019-03-26T12:03:51.711Z,34.75
2019-03-26T12:04:51.704Z,35.82
2019-03-26T12:05:51.756Z,35.99
2019-03-26T12:06:51.676Z,36.44
2019-03-26T12:07:51.658Z,34.47
2019-03-26T12:08:51.643Z,35.17
2019-03-26T12:09:51.675Z,36.22
2019-03-26T12:10:51.620Z,34.92
2019-03-26T12:11:51.627Z,32.72
2019-03-26T12:12:51.618Z,32.85
2019-03-26T12:13:51.590Z,33.50
2019-03-26T12:14:52.034Z,34.85
2019-03-26T12:15:51.565Z,34.84
2019-03-26T12:16:51.554Z,35.36
2019-03-26T12:17:51.552Z,34.60
2019-03-26T12:18:51.534Z,32.75
2019-03-26T12:19:51.527Z,33.15
2019-03-26T12:20:51.510Z,32.64
2019-03-26T12:21:51.499Z,32.73
2019-03-26T12:22:51.490Z,33.22
2019-03-26T12:23:51.478Z,35.35
2019-03-26T12:24:51.467Z,33.97
2019-03-26T12:25:51.458Z,33.04
2019-03-26T12:26:51.445Z,33.39
2019-03-26T12:27:51.442Z,34.79
2019-03-26T12:28:51.431Z,33.04
2019-03-26T12:29:51.412Z,33.34
2019-03-26T12:30:51.406Z,34.55
2019-03-26T12:31:51.398Z,35.66
2019-03-26T12:32:51.380Z,34.64
2019-03-26T12:33:51.370Z,34.30
2019-03-26T12:34:51.358Z,33.50
2019-03-26T12:35:51.349Z,34.00
2019-03-26T12:36:51.339Z,32.64
2019-03-26T12:37:51.331Z,32.89
2019-03-26T12:38:51.322Z,32.04
2019-03-26T12:39:59.435Z,34.27
2019-03-26T12:40:52.329Z,32.72
2019-03-26T12:41:51.290Z,33.54
2019-03-26T12:42:51.274Z,32.01
2019-03-26T12:43:51.262Z,31.90
2019-03-26T12:44:51.443Z,31.81
2019-03-26T12:45:51.255Z,30.55
2019-03-26T12:46:51.310Z,32.61
2019-03-26T12:47:51.223Z,33.81
2019-03-26T12:48:51.217Z,33.20
2019-03-26T12:49:51.198Z,32.76
2019-03-26T12:50:51.192Z,32.70
2019-03-26T12:51:51.235Z,34.53
2019-03-26T12:52:51.169Z,34.58